Flight Track Log - Related Links

Times and Time Zones

All times are in EDT time to prevent confusion due to time zone crossing. See the UAL1519 flight status page for this flight to view local times or setup timezone preferences in your user account.

Time Position Orientation Groundspeed Altitude Reporting Facility
EDT Latitude Longitude Course Direction KTS MPH feet Rate Location/Type
Thu 10:14:13 AM 40.7333 -74.1333 114° Southeast 193 222 2,000  Level New York TRACON
Thu 10:15:19 AM 40.7833 -74.1833 323° Northwest 247 284 5,700 3,048 Climbing New York TRACON
Thu 10:16:00 AM 40.3463 -74.1710 161° South  Level FlightAware Approximate
Thu 10:16:19 AM 40.7333 -74.2333 217° Southwest 254 292 8,400  Level New York TRACON
Thu 10:17:00 AM 40.2243 -74.1500 180° South  Level FlightAware Approximate
Thu 10:17:13 AM 40.6667 -74.2167 169° South 263 303 11,300  Level New York TRACON
Thu 10:18:00 AM 40.0996 -74.1500 180° South  Level FlightAware Approximate
Thu 10:18:13 AM 40.5833 -74.2167 180° South 322 371 13,000  Level New York TRACON
Thu 10:19:00 AM 40.0521 -74.0230 114° Southeast  Level FlightAware Approximate
Thu 10:19:13 AM 40.4833 -74.2000 173° South 354 407 15,000  Level New York TRACON
Thu 10:21:12 AM 40.2975 -74.1889 177° South 376 433 15,000 102 Level New York Center
Thu 10:22:10 AM 40.2125 -74.1711 171° South 359 413 15,300 1,412 Climbing New York Center
Thu 10:23:11 AM 40.1539 -74.0378 120° Southeast 350 403 17,800 2,182 Climbing New York Center
Thu 10:24:11 AM 40.1175 -73.9167 111° Southeast 375 432 19,700 2,132 Climbing New York Center
Thu 10:25:12 AM 40.0694 -73.7653 112° Southeast 399 459 22,100 1,613 Climbing New York Center
Thu 10:26:10 AM 39.9842 -73.6806 143° Southeast 405 466 22,900 454 Climbing New York Center
Thu 10:27:11 AM 39.8861 -73.5925 145° Southeast 405 466 23,000 50 Climbing New York Center
Thu 10:28:11 AM 39.7922 -73.5050 144° Southeast 418 481 23,000  Level New York Center
Thu 10:29:09 AM 39.6883 -73.4092 145° Southeast 418 481 23,000 800 Level New York Center
Thu 10:30:11 AM 39.5983 -73.3275 145° Southeast 418 481 24,600 1,721 Climbing New York Center
Thu 10:31:11 AM 39.4983 -73.2325 144° Southeast 437 503 26,500 1,950 Climbing New York Center
Thu 10:32:11 AM 39.3958 -73.1428 146° Southeast 437 503 28,500 2,136 Climbing New York Center
Thu 10:33:09 AM 39.2994 -73.0564 145° Southeast 437 503 30,700 1,261 Climbing New York Center
Thu 10:34:10 AM 39.1992 -72.9622 144° Southeast 436 502 31,000 149 Climbing New York Center
Thu 10:35:10 AM 39.1008 -72.8761 146° Southeast 436 502 31,000 744 Level New York Center
Thu 10:36:11 AM 39.0003 -72.7850 145° Southeast 436 502 32,500 1,339 Climbing New York Center
Thu 10:37:11 AM 38.9017 -72.6967 145° Southeast 436 502 33,700 1,450 Climbing New York Center
Thu 10:38:11 AM 38.8008 -72.6033 144° Southeast 441 507 35,400 1,636 Climbing New York Center
Thu 10:39:12 AM 38.7022 -72.5158 145° Southeast 441 507 37,000 793 Climbing New York Center
Thu 10:40:12 AM 38.6053 -72.4364 147° Southeast 431 496 37,000 -50 Level New York Center
Thu 10:41:12 AM 38.5064 -72.3489 145° Southeast 437 503 36,900  Descending New York Center
Thu 10:42:11 AM 38.4075 -72.2567 144° Southeast 437 503 37,000 50 Climbing New York Center
Thu 10:43:12 AM 38.3067 -72.1672 145° Southeast 437 503 37,000 -50 Level New York Center
Thu 10:44:10 AM 38.2056 -72.0781 145° Southeast 437 503 36,900  Descending New York Center
Thu 10:45:10 AM 38.1042 -71.9892 145° Southeast 437 503 37,000 50 Climbing New York Center
Thu 10:46:11 AM 38.0050 -71.9031 146° Southeast 437 503 37,000 -49 Level New York Center
Thu 10:47:13 AM 37.9036 -71.8225 148° Southeast 437 503 36,900 -50 Descending New York Center
Thu 10:48:10 AM 37.8042 -71.7317 144° Southeast 437 503 36,900 51 Level New York Center
Thu 10:49:11 AM 37.7028 -71.6411 145° Southeast 437 503 37,000 50 Climbing New York Center
Thu 10:50:11 AM 37.6053 -71.5508 144° Southeast 437 503 37,000  Level New York Center
Thu 10:51:12 AM 37.4956 -71.4631 148° Southeast 432 497 37,000 -50 Level New York Center
Thu 10:52:12 AM 37.3958 -71.3967 152° Southeast 439 505 36,900 -50 Descending New York Center
Thu 10:53:11 AM 37.2667 -71.3669 170° South 425 489 36,900 Level New York Center
Thu 10:55:00 AM 37.0794 -71.2044 155° Southeast  Level FlightAware Approximate
Thu 11:02:00 AM 36.2892 -70.7413 155° Southeast  Level FlightAware Approximate
Thu 11:03:00 AM 36.1761 -70.6763 155° Southeast  Level FlightAware Approximate
Thu 11:04:00 AM 36.0629 -70.6115 155° Southeast  Level FlightAware Approximate
Thu 11:05:00 AM 35.9497 -70.5468 155° Southeast  Level FlightAware Approximate
Thu 11:06:00 AM 35.8364 -70.4824 155° Southeast  Level FlightAware Approximate
Thu 11:07:00 AM 35.7210 -70.4256 168° South  Level FlightAware Approximate
Thu 11:08:00 AM 35.5991 -70.3932 168° South  Level FlightAware Approximate
Thu 11:09:00 AM 35.4772 -70.3609 168° South  Level FlightAware Approximate
Thu 11:09:36 AM 35.7667 -70.4500 168° South 451 519 37,000  Level New York Oceanic (ODAPS)
Thu 11:10:00 AM 35.3553 -70.3287 168° South  Level FlightAware Approximate
Thu 11:11:00 AM 35.2333 -70.2966 168° South  Level FlightAware Approximate
Thu 11:12:00 AM 35.1114 -70.2645 168° South  Level FlightAware Approximate
Thu 11:13:00 AM 34.9894 -70.2326 168° South  Level FlightAware Approximate
Thu 11:14:00 AM 34.8675 -70.2008 168° South  Level FlightAware Approximate
Thu 11:15:00 AM 34.7455 -70.1690 168° South  Level FlightAware Approximate
Thu 11:16:00 AM 34.6447 -70.1568 168° South 451 519 37,000  Level FlightAware Transoceanic
Thu 11:17:00 AM 34.5200 -70.1247 168° South 451 519 37,000  Level FlightAware Transoceanic
Thu 11:18:00 AM 34.3952 -70.0928 168° South 451 519 37,000  Level FlightAware Transoceanic
Thu 11:19:00 AM 34.2705 -70.0609 168° South 451 519 37,000  Level FlightAware Transoceanic
Thu 11:20:00 AM 34.1458 -70.0291 168° South 451 519 37,000  Level FlightAware Transoceanic
Thu 11:21:00 AM 34.0210 -69.9974 168° South 451 519 37,000  Level FlightAware Transoceanic
Thu 11:22:00 AM 33.8963 -69.9658 168° South 451 519 37,000  Level FlightAware Transoceanic
Thu 11:23:00 AM 33.7715 -69.9342 168° South 451 519 37,000  Level FlightAware Transoceanic
Thu 11:24:00 AM 33.6468 -69.9028 168° South 451 519 37,000  Level FlightAware Transoceanic
Thu 11:25:00 AM 33.5220 -69.8715 168° South 451 519 37,000  Level FlightAware Transoceanic
Thu 11:26:00 AM 33.3972 -69.8402 168° South 451 519 37,000  Level FlightAware Transoceanic
Thu 11:27:00 AM 33.2724 -69.8091 168° South 451 519 37,000  Level FlightAware Transoceanic
Thu 11:28:00 AM 33.1476 -69.7780 168° South 451 519 37,000  Level FlightAware Transoceanic
Thu 11:29:00 AM 33.0228 -69.7471 168° South 451 519 37,000  Level FlightAware Transoceanic
Thu 11:30:00 AM 32.8980 -69.7162 168° South 451 519 37,000  Level FlightAware Transoceanic
Thu 11:31:00 AM 32.7732 -69.6854 168° South 451 519 37,000  Level FlightAware Transoceanic
Thu 11:32:00 AM 32.6483 -69.6546 168° South 451 519 37,000  Level FlightAware Transoceanic
Thu 11:33:00 AM 32.5235 -69.6240 168° South 451 519 37,000  Level FlightAware Transoceanic
Thu 11:34:00 AM 32.3987 -69.5935 168° South 451 519 37,000  Level FlightAware Transoceanic
Thu 11:34:47 AM 33.3000 -69.8167 168° South 463 533 37,000  Level New York Oceanic (ODAPS)
Thu 11:35:00 AM 32.2738 -69.5630 168° South 451 519 37,000  Level FlightAware Transoceanic
Thu 11:36:00 AM 32.1490 -69.5326 168° South 451 519 37,000  Level FlightAware Transoceanic
Thu 11:37:00 AM 32.0241 -69.5023 168° South 451 519 37,000  Level FlightAware Transoceanic
Thu 11:38:00 AM 31.8992 -69.4721 168° South 451 519 37,000  Level FlightAware Transoceanic
Thu 11:39:00 AM 31.7743 -69.4420 168° South 451 519 37,000  Level FlightAware Transoceanic
Thu 11:40:00 AM 31.6495 -69.4119 168° South 451 519 37,000  Level FlightAware Transoceanic
Thu 11:41:00 AM 31.6582 -69.4143 168° South 463 533 37,000  Level FlightAware Transoceanic
Thu 11:42:00 AM 31.5318 -69.3839 168° South 463 533 37,000  Level FlightAware Transoceanic
Thu 11:43:00 AM 31.4055 -69.3536 168° South 463 533 37,000  Level FlightAware Transoceanic
Thu 11:44:00 AM 31.2791 -69.3234 168° South 463 533 37,000  Level FlightAware Transoceanic
Thu 11:45:00 AM 31.1528 -69.2933 168° South 463 533 37,000  Level FlightAware Transoceanic
Thu 11:46:00 AM 31.0264 -69.2633 169° South 463 533 37,000  Level FlightAware Transoceanic
Thu 11:47:00 AM 30.9000 -69.2333 168° South 463 533 37,000  Level FlightAware Transoceanic
Thu 11:48:00 AM 30.7748 -69.2035 168° South 463 533 37,000  Level FlightAware Transoceanic
Thu 11:49:00 AM 30.6495 -69.1737 168° South 463 533 37,000  Level FlightAware Transoceanic
Thu 11:50:00 AM 30.5243 -69.1440 168° South 463 533 37,000  Level FlightAware Transoceanic
Thu 11:51:00 AM 30.3990 -69.1143 168° South 463 533 37,000  Level FlightAware Transoceanic
Thu 11:52:00 AM 30.2737 -69.0848 168° South 463 533 37,000  Level FlightAware Transoceanic
Thu 11:53:00 AM 30.1485 -69.0553 169° South 463 533 37,000  Level FlightAware Transoceanic
Thu 11:54:00 AM 30.0232 -69.0259 169° South 463 533 37,000  Level FlightAware Transoceanic
Thu 11:55:00 AM 29.8979 -68.9966 169° South 463 533 37,000  Level FlightAware Transoceanic
Thu 11:56:00 AM 29.7726 -68.9673 169° South 463 533 37,000  Level FlightAware Transoceanic
Thu 11:57:00 AM 29.6473 -68.9381 169° South 463 533 37,000  Level FlightAware Transoceanic
Thu 11:58:00 AM 29.5220 -68.9090 169° South 463 533 37,000  Level FlightAware Transoceanic
Thu 11:59:00 AM 29.3967 -68.8800 169° South 463 533 37,000  Level FlightAware Transoceanic
Thu 11:59:18 AM 30.9000 -69.2333 168° South 451 519 37,000  Level New York Oceanic (ODAPS)
Thu 12:00:00 PM 29.2714 -68.8510 169° South 463 533 37,000  Level FlightAware Transoceanic
Thu 12:01:00 PM 29.1460 -68.8221 169° South 463 533 37,000  Level FlightAware Transoceanic
Thu 12:02:00 PM 29.0207 -68.7933 169° South 463 533 37,000  Level FlightAware Transoceanic
Thu 12:03:00 PM 28.8953 -68.7646 169° South 463 533 37,000  Level FlightAware Transoceanic
Thu 12:04:00 PM 28.7700 -68.7359 169° South 463 533 37,000  Level FlightAware Transoceanic
Thu 12:05:00 PM 28.7700 -68.7359 169° South 451 519 37,000  Level FlightAware Transoceanic
Thu 12:06:00 PM 28.6447 -68.7073 169° South 451 519 37,000  Level FlightAware Transoceanic
Thu 12:07:00 PM 28.5193 -68.6787 169° South 451 519 37,000  Level FlightAware Transoceanic
Thu 12:08:00 PM 28.3939 -68.6502 169° South 451 519 37,000  Level FlightAware Transoceanic
Thu 12:09:00 PM 28.2686 -68.6218 169° South 451 519 37,000  Level FlightAware Transoceanic
Thu 12:10:00 PM 28.1432 -68.5935 169° South 451 519 37,000  Level FlightAware Transoceanic
Thu 12:11:00 PM 28.0178 -68.5652 169° South 451 519 37,000  Level FlightAware Transoceanic
Thu 12:12:00 PM 27.8924 -68.5370 169° South 451 519 37,000  Level FlightAware Transoceanic
Thu 12:13:00 PM 27.7670 -68.5088 169° South 451 519 37,000  Level FlightAware Transoceanic
Thu 12:14:00 PM 27.6416 -68.4807 169° South 451 519 37,000  Level FlightAware Transoceanic
Thu 12:15:00 PM 27.5162 -68.4527 169° South 451 519 37,000  Level FlightAware Transoceanic
Thu 12:15:26 PM 27.9333 -68.5333 169° South 474 545 37,000  Level New York Oceanic (ODAPS)
Thu 12:16:00 PM 27.3908 -68.4248 169° South 451 519 37,000  Level FlightAware Transoceanic
Thu 12:17:00 PM 27.2654 -68.3969 169° South 451 519 37,000  Level FlightAware Transoceanic
Thu 12:18:00 PM 27.1400 -68.3690 169° South 451 519 37,000  Level FlightAware Transoceanic
Thu 12:19:00 PM 27.0146 -68.3413 169° South 451 519 37,000  Level FlightAware Transoceanic
Thu 12:20:00 PM 26.8891 -68.3136 169° South 451 519 37,000  Level FlightAware Transoceanic
Thu 12:21:00 PM 26.7740 -68.2778 169° South 474 545 37,000  Level FlightAware Transoceanic
Thu 12:22:00 PM 26.6452 -68.2498 169° South 474 545 37,000  Level FlightAware Transoceanic
Thu 12:23:00 PM 26.5164 -68.2218 169° South 474 545 37,000  Level FlightAware Transoceanic
Thu 12:24:00 PM 26.3875 -68.1938 169° South 474 545 37,000  Level FlightAware Transoceanic
Thu 12:25:00 PM 26.2587 -68.1659 169° South 474 545 37,000  Level FlightAware Transoceanic
Thu 12:26:00 PM 26.1298 -68.1381 169° South 474 545 37,000  Level FlightAware Transoceanic
Thu 12:27:00 PM 26.0009 -68.1104 169° South 474 545 37,000  Level FlightAware Transoceanic
Thu 12:28:00 PM 25.8721 -68.0827 169° South 474 545 37,000  Level FlightAware Transoceanic
Thu 12:29:00 PM 25.7432 -68.0551 169° South 474 545 37,000  Level FlightAware Transoceanic
Thu 12:30:00 PM 25.6143 -68.0275 169° South 474 545 37,000  Level FlightAware Transoceanic
Thu 12:31:00 PM 25.4854 -68.0000 169° South 474 545 37,000  Level FlightAware Transoceanic
Thu 12:32:00 PM 25.3565 -67.9725 169° South 474 545 37,000  Level FlightAware Transoceanic
Thu 12:33:00 PM 25.2276 -67.9451 169° South 474 545 37,000  Level FlightAware Transoceanic
Thu 12:34:00 PM 25.0987 -67.9178 169° South 474 545 37,000  Level FlightAware Transoceanic
Thu 12:34:39 PM 25.4667 -68.0000 169° South 473 544 37,000  Level New York Oceanic (ODAPS)
Thu 12:35:00 PM 24.9698 -67.8905 169° South 474 545 37,000  Level FlightAware Transoceanic
Thu 12:36:00 PM 24.8409 -67.8633 169° South 474 545 37,000  Level FlightAware Transoceanic
Thu 12:37:00 PM 24.7120 -67.8361 169° South 474 545 37,000  Level FlightAware Transoceanic
Thu 12:38:00 PM 24.5831 -67.8090 169° South 474 545 37,000  Level FlightAware Transoceanic
Thu 12:39:00 PM 24.4542 -67.7820 169° South 474 545 37,000  Level FlightAware Transoceanic
Thu 12:40:00 PM 24.3252 -67.7550 169° South 474 545 37,000  Level FlightAware Transoceanic
Thu 12:41:00 PM 24.1838 -67.7281 169° South 473 544 37,000  Level FlightAware Transoceanic
Thu 12:42:00 PM 24.0555 -67.7012 169° South 473 544 37,000  Level FlightAware Transoceanic
Thu 12:43:00 PM 23.9272 -67.6743 169° South 473 544 37,000  Level FlightAware Transoceanic
Thu 12:44:00 PM 23.7988 -67.6476 169° South 473 544 37,000  Level FlightAware Transoceanic
Thu 12:45:00 PM 23.6705 -67.6208 169° South 473 544 37,000  Level FlightAware Transoceanic
Thu 12:46:00 PM 23.5422 -67.5941 169° South 473 544 37,000  Level FlightAware Transoceanic
Thu 12:46:54 PM 23.4500 -67.6000 169° South 490 564 37,000  Level San Juan Center
Thu 12:47:00 PM 23.4138 -67.5675 169° South 473 544 37,000  Level FlightAware Transoceanic
Thu 12:47:54 PM 23.3167 -67.5833 173° South 480 552 37,000  Level San Juan Center
Thu 12:48:00 PM 23.2855 -67.5409 169° South 473 544 37,000  Level FlightAware Transoceanic
Thu 12:48:55 PM 23.1833 -67.5500 167° South 480 552 37,000  Level San Juan Center
Thu 12:49:00 PM 23.1572 -67.5144 169° South 473 544 37,000  Level FlightAware Transoceanic
Thu 12:49:54 PM 23.0833 -67.5333 171° South 480 552 37,000  Level San Juan Center
Thu 12:50:00 PM 23.0288 -67.4880 169° South 473 544 37,000  Level FlightAware Transoceanic
Thu 12:50:55 PM 22.9167 -67.5000 170° South 470 541 37,000  Level San Juan Center
Thu 12:51:00 PM 22.9004 -67.4615 169° South 473 544 37,000  Level FlightAware Transoceanic
Thu 12:51:55 PM 22.7833 -67.4667 167° South 480 552 37,000  Level San Juan Center
Thu 12:52:00 PM 22.7721 -67.4352 169° South 473 544 37,000  Level FlightAware Transoceanic
Thu 12:52:56 PM 22.6667 -67.4500 172° South 470 541 37,000  Level San Juan Center
Thu 12:53:56 PM 22.5333 -67.4167 167° South 470 541 37,000  Level San Juan Center
Thu 12:54:56 PM 22.4000 -67.3833 167° South 480 552 37,000  Level San Juan Center
Thu 12:55:56 PM 22.2667 -67.3667 173° South 480 552 37,000  Level San Juan Center
Thu 12:56:57 PM 22.1333 -67.3333 167° South 470 541 37,000  Level San Juan Center
Thu 12:57:57 PM 22.0000 -67.3167 173° South 480 552 37,000  Level San Juan Center
Thu 12:58:37 PM 22.2333 -67.3167 170° South 443 510 37,000  Level New York Oceanic (ODAPS)
Thu 12:58:57 PM 21.8833 -67.2833 170° South 470 541 37,000  Level San Juan Center
Thu 12:59:58 PM 21.7500 -67.2500 167° South 470 541 37,000  Level San Juan Center
Thu 01:00:58 PM 21.6167 -67.2167 167° South 480 552 37,000  Level San Juan Center
Thu 01:01:58 PM 21.5000 -67.1667 158° South 500 575 37,000  Level San Juan Center
Thu 01:02:59 PM 21.3833 -67.0833 146° Southeast 510 587 37,000  Level San Juan Center
Thu 01:03:59 PM 21.2667 -67.0000 146° Southeast 510 587 37,000  Level San Juan Center
Thu 01:04:59 PM 21.1333 -66.9167 150° Southeast 500 575 37,000  Level San Juan Center
Thu 01:06:00 PM 21.0167 -66.8500 152° Southeast 500 575 37,000  Level San Juan Center
Thu 01:07:00 PM 20.9000 -66.7667 146° Southeast 500 575 37,000  Level San Juan Center
Thu 01:08:00 PM 20.7833 -66.7000 152° Southeast 500 575 37,000  Level San Juan Center
Thu 01:09:01 PM 20.6667 -66.6167 146° Southeast 500 575 37,000  Level San Juan Center
Thu 01:10:01 PM 20.5333 -66.5333 150° Southeast 490 564 37,000  Level San Juan Center
Thu 01:11:01 PM 20.4167 -66.4667 152° Southeast 500 575 37,000 -298 Level San Juan Center
Thu 01:12:02 PM 20.3000 -66.3833 146° Southeast 490 564 36,400 -744 Descending San Juan Center
Thu 01:13:02 PM 20.1833 -66.3167 152° Southeast 500 575 35,500 -900 Descending San Juan Center
Thu 01:14:02 PM 20.0667 -66.2333 146° Southeast 500 575 34,600 -1,150 Descending San Juan Center
Thu 01:15:02 PM 19.9333 -66.1500 150° Southeast 500 575 33,200 -1,900 Descending San Juan Center
Thu 01:16:02 PM 19.8167 -66.0833 152° Southeast 500 575 30,800 -2,281 Descending San Juan Center
Thu 01:17:03 PM 19.7000 -66.0167 152° Southeast 480 552 28,600 -2,083 Descending San Juan Center
Thu 01:18:03 PM 19.6000 -65.9333 142° Southeast 460 529 26,600 -2,050 Descending San Juan Center
Thu 01:19:03 PM 19.5000 -65.8833 155° Southeast 430 495 24,500 -1,934 Descending San Juan Center
Thu 01:20:04 PM 19.4000 -65.8167 148° Southeast 420 483 22,700 -1,785 Descending San Juan Center
Thu 01:21:04 PM 19.3000 -65.7500 148° Southeast 400 460 20,900 -1,750 Descending San Juan Center
Thu 01:22:04 PM 19.2167 -65.7000 150° Southeast 370 426 19,200 -1,636 Descending San Juan Center
Thu 01:23:05 PM 19.1167 -65.6500 155° Southeast 360 414 17,600 -1,736 Descending San Juan Center
Thu 01:24:05 PM 19.0333 -65.5833 143° Southeast 350 403 15,700 -1,800 Descending San Juan Center
Thu 01:25:05 PM 18.9500 -65.5333 150° Southeast 350 403 14,000 -1,700 Descending San Juan Center
Thu 01:26:05 PM 18.8667 -65.4833 150° Southeast 330 380 12,300 -1,636 Descending San Juan Center
Thu 01:27:06 PM 18.7833 -65.4333 150° Southeast 320 368 10,700 -1,289 Descending San Juan Center
Thu 01:28:06 PM 18.7167 -65.3833 145° Southeast 310 357 9,700 -950 Descending San Juan Center
Thu 01:29:06 PM 18.6333 -65.3500 159° South 270 311 8,800 -942 Descending San Juan Center
Thu 01:30:07 PM 18.5833 -65.3167 148° Southeast 250 288 7,800 -942 Descending San Juan Center
Thu 01:31:07 PM 18.5167 -65.2833 155° Southeast 250 288 6,900 -1,050 Descending San Juan Center
Thu 01:32:07 PM 18.4500 -65.2500 155° Southeast 250 288 5,700 -1,000 Descending San Juan Center
Thu 01:33:07 PM 18.4000 -65.2167 148° Southeast 240 276 4,900 -942 Descending San Juan Center
Thu 01:34:08 PM 18.3333 -65.1833 155° Southeast 220 253 3,800 -992 Descending San Juan Center
Thu 01:35:08 PM 18.3167 -65.1333 109° East 190 219 2,900 -900 Descending San Juan Center

Login

Don't have an account? Register now (free) for customized features, flight alerts, and more!